Pagrindinis puslapis
METAR-TAF:

METAR-TAF

Oro uostai :

Sandspit, Britų Kolumbija, Kanada

platuma: 53-15N, ilguma: 131-49W, Aukštis: 6 m

Dabartinis oras

Ataskaita buvo paskelbta 36 minutes, ne 14:00 UTC
Vėjas 16 kt iš Pietų/Pietryčių
Temperatūra 10°C
Drėgmė 87%
Slėgis 1014 hPa
Matomumas: 14.5 km
Mažai debesys ne aukštis 6500 ft

METAR: CYZP 291400Z AUTO 15016KT 9SM FEW065 10/08 A2994 RMK SLP140

Laikas: 07:36 (14:36 UTC)

Prognozė

Ataskaita buvo paskelbta 1 valandą ir 58 minutes, ne 12:38 UTC
Prognozė galioja nuo 29 metu 13 UTC su 30 metu 01 UTC
Vėjas 15 kt iš Pietų/Pietryčių
Matomumas: 10 km
Mažai debesys ne aukštis 2000 ft
Su prošvaistėmis ne aukštis 4000 ft
Laikinai
nuo 29 metu 13 UTC su 30 metu 01 UTC
Matomumas: 10 km
Su prošvaistėmis ne aukštis 2000 ft
Apsiniaukę ne aukštis 4000 ft
lietus

TAF: CYZP 291238Z 2913/3001 15015KT P6SM FEW020 BKN040 TEMPO 2913/3001 P6SM -SHRA BKN020 OVC040 RMK FCST BASED ON AUTO OBS. NXT FCST BY 291900Z

Orai ataskaitas ir orų prognozės (METAR, TAF).

turimą stotys yra geltonos ir raudonos taškus žemėlapyje.

Perkelti pele per norėdami pamatyti stoties vardą.

Tada spustelėkite, norėdami matyti oro stebėjimo ir prognozės.

Norėdami pakeisti žemėlapį: spustelėkite ant žalios mygtukų su juodo kryžiaus žemyn,; žalią mygtuką su brūkšneliu, jei norite nutolinti; arba žalių rodyklių gretimoms žemėlapius.


METAR-TAF: